sensor_id;sensor_type;location;lat;lon;timestamp;P1;durP1;ratioP1;P2;durP2;ratioP2
7503;SDS011;3793;48.136;11.536;2022-12-07T00:01:05;10.73;;;8.60;;
7503;SDS011;3793;48.136;11.536;2022-12-07T00:03:32;14.97;;;10.10;;
7503;SDS011;3793;48.136;11.536;2022-12-07T00:05:58;13.97;;;9.43;;
7503;SDS011;3793;48.136;11.536;2022-12-07T00:08:26;15.20;;;10.20;;
7503;SDS011;3793;48.136;11.536;2022-12-07T00:10:53;10.80;;;8.27;;
7503;SDS011;3793;48.136;11.536;2022-12-07T00:13:20;10.80;;;8.90;;
7503;SDS011;3793;48.136;11.536;2022-12-07T00:15:46;13.60;;;9.83;;
7503;SDS011;3793;48.136;11.536;2022-12-07T00:18:13;10.67;;;8.73;;
7503;SDS011;3793;48.136;11.536;2022-12-07T00:20:39;15.50;;;8.80;;
7503;SDS011;3793;48.136;11.536;2022-12-07T00:23:06;12.47;;;8.50;;
7503;SDS011;3793;48.136;11.536;2022-12-07T00:25:34;12.83;;;9.50;;
7503;SDS011;3793;48.136;11.536;2022-12-07T00:28:00;10.53;;;8.13;;
7503;SDS011;3793;48.136;11.536;2022-12-07T00:30:26;11.07;;;9.00;;
7503;SDS011;3793;48.136;11.536;2022-12-07T00:32:53;12.17;;;9.00;;
7503;SDS011;3793;48.136;11.536;2022-12-07T00:35:20;10.20;;;8.03;;
7503;SDS011;3793;48.136;11.536;2022-12-07T00:37:46;9.93;;;8.43;;
7503;SDS011;3793;48.136;11.536;2022-12-07T00:40:13;12.17;;;8.77;;
7503;SDS011;3793;48.136;11.536;2022-12-07T00:42:40;11.33;;;8.53;;
7503;SDS011;3793;48.136;11.536;2022-12-07T00:45:08;10.43;;;8.30;;
7503;SDS011;3793;48.136;11.536;2022-12-07T00:47:34;9.60;;;8.60;;
7503;SDS011;3793;48.136;11.536;2022-12-07T00:50:01;10.13;;;8.70;;
7503;SDS011;3793;48.136;11.536;2022-12-07T00:52:27;11.03;;;8.20;;
7503;SDS011;3793;48.136;11.536;2022-12-07T00:54:54;9.97;;;8.50;;
7503;SDS011;3793;48.136;11.536;2022-12-07T00:57:20;10.13;;;8.23;;
7503;SDS011;3793;48.136;11.536;2022-12-07T00:59:49;10.67;;;8.17;;
7503;SDS011;3793;48.136;11.536;2022-12-07T01:02:15;8.77;;;7.77;;
7503;SDS011;3793;48.136;11.536;2022-12-07T01:04:42;11.93;;;7.47;;
7503;SDS011;3793;48.136;11.536;2022-12-07T01:07:08;9.73;;;8.40;;
7503;SDS011;3793;48.136;11.536;2022-12-07T01:09:35;12.23;;;8.53;;
7503;SDS011;3793;48.136;11.536;2022-12-07T01:12:02;11.50;;;8.37;;
7503;SDS011;3793;48.136;11.536;2022-12-07T01:14:29;9.97;;;7.90;;
7503;SDS011;3793;48.136;11.536;2022-12-07T01:16:57;10.63;;;8.33;;
7503;SDS011;3793;48.136;11.536;2022-12-07T01:19:23;9.97;;;7.93;;
7503;SDS011;3793;48.136;11.536;2022-12-07T01:21:50;10.77;;;7.73;;
7503;SDS011;3793;48.136;11.536;2022-12-07T01:24:16;10.47;;;7.90;;
7503;SDS011;3793;48.136;11.536;2022-12-07T01:26:43;10.20;;;8.20;;
7503;SDS011;3793;48.136;11.536;2022-12-07T01:29:10;9.83;;;8.10;;
7503;SDS011;3793;48.136;11.536;2022-12-07T01:31:36;9.33;;;8.03;;
7503;SDS011;3793;48.136;11.536;2022-12-07T01:34:04;9.67;;;7.93;;
7503;SDS011;3793;48.136;11.536;2022-12-07T01:36:32;9.07;;;8.10;;
7503;SDS011;3793;48.136;11.536;2022-12-07T01:38:59;9.20;;;7.37;;
7503;SDS011;3793;48.136;11.536;2022-12-07T01:41:27;9.73;;;7.87;;
7503;SDS011;3793;48.136;11.536;2022-12-07T01:46:55;10.70;;;7.80;;
7503;SDS011;3793;48.136;11.536;2022-12-07T01:49:25;10.30;;;7.83;;
7503;SDS011;3793;48.136;11.536;2022-12-07T01:51:53;9.53;;;7.50;;
7503;SDS011;3793;48.136;11.536;2022-12-07T01:54:20;10.37;;;8.23;;
7503;SDS011;3793;48.136;11.536;2022-12-07T01:56:48;10.30;;;7.87;;
7503;SDS011;3793;48.136;11.536;2022-12-07T01:59:16;10.77;;;8.50;;
7503;SDS011;3793;48.136;11.536;2022-12-07T02:01:44;9.53;;;7.90;;
7503;SDS011;3793;48.136;11.536;2022-12-07T02:04:10;9.77;;;7.77;;
7503;SDS011;3793;48.136;11.536;2022-12-07T02:06:39;9.67;;;7.60;;
7503;SDS011;3793;48.136;11.536;2022-12-07T02:09:06;9.87;;;8.23;;
7503;SDS011;3793;48.136;11.536;2022-12-07T02:11:33;9.83;;;7.50;;
7503;SDS011;3793;48.136;11.536;2022-12-07T02:14:00;8.87;;;7.83;;
7503;SDS011;3793;48.136;11.536;2022-12-07T02:16:28;11.67;;;8.70;;
7503;SDS011;3793;48.136;11.536;2022-12-07T02:18:58;9.27;;;7.40;;
7503;SDS011;3793;48.136;11.536;2022-12-07T02:21:29;10.73;;;8.03;;
7503;SDS011;3793;48.136;11.536;2022-12-07T02:29:25;9.73;;;8.40;;
7503;SDS011;3793;48.136;11.536;2022-12-07T02:31:55;9.90;;;7.90;;
7503;SDS011;3793;48.136;11.536;2022-12-07T02:34:26;12.17;;;8.00;;
7503;SDS011;3793;48.136;11.536;2022-12-07T02:36:55;10.67;;;8.57;;
7503;SDS011;3793;48.136;11.536;2022-12-07T02:39:26;10.70;;;7.77;;
7503;SDS011;3793;48.136;11.536;2022-12-07T02:41:55;8.67;;;7.77;;
7503;SDS011;3793;48.136;11.536;2022-12-07T02:44:25;8.87;;;7.47;;
7503;SDS011;3793;48.136;11.536;2022-12-07T02:46:53;9.63;;;7.50;;
7503;SDS011;3793;48.136;11.536;2022-12-07T02:49:21;10.33;;;8.40;;
7503;SDS011;3793;48.136;11.536;2022-12-07T02:51:48;11.17;;;8.40;;
7503;SDS011;3793;48.136;11.536;2022-12-07T02:54:16;10.20;;;7.67;;
7503;SDS011;3793;48.136;11.536;2022-12-07T02:56:44;10.87;;;8.17;;
7503;SDS011;3793;48.136;11.536;2022-12-07T02:59:14;12.13;;;9.00;;
7503;SDS011;3793;48.136;11.536;2022-12-07T03:01:47;11.03;;;8.37;;
7503;SDS011;3793;48.136;11.536;2022-12-07T03:04:19;11.50;;;8.13;;
7503;SDS011;3793;48.136;11.536;2022-12-07T03:06:51;9.53;;;7.97;;
7503;SDS011;3793;48.136;11.536;2022-12-07T03:09:20;10.60;;;8.00;;
7503;SDS011;3793;48.136;11.536;2022-12-07T03:11:48;9.17;;;7.67;;
7503;SDS011;3793;48.136;11.536;2022-12-07T03:14:17;9.80;;;7.93;;
7503;SDS011;3793;48.136;11.536;2022-12-07T03:16:49;9.97;;;7.67;;
7503;SDS011;3793;48.136;11.536;2022-12-07T03:19:19;10.20;;;8.27;;
7503;SDS011;3793;48.136;11.536;2022-12-07T03:21:47;11.93;;;9.00;;
7503;SDS011;3793;48.136;11.536;2022-12-07T03:24:17;10.83;;;7.60;;
7503;SDS011;3793;48.136;11.536;2022-12-07T03:26:46;10.40;;;8.03;;
7503;SDS011;3793;48.136;11.536;2022-12-07T03:29:14;10.70;;;8.07;;
7503;SDS011;3793;48.136;11.536;2022-12-07T03:31:43;10.57;;;7.67;;
7503;SDS011;3793;48.136;11.536;2022-12-07T03:34:14;9.07;;;7.30;;
7503;SDS011;3793;48.136;11.536;2022-12-07T03:36:43;10.03;;;8.47;;
7503;SDS011;3793;48.136;11.536;2022-12-07T03:39:13;12.40;;;9.47;;
7503;SDS011;3793;48.136;11.536;2022-12-07T03:41:43;10.77;;;8.67;;
7503;SDS011;3793;48.136;11.536;2022-12-07T03:44:10;10.70;;;8.40;;
7503;SDS011;3793;48.136;11.536;2022-12-07T03:46:39;12.23;;;9.80;;
7503;SDS011;3793;48.136;11.536;2022-12-07T03:49:11;12.63;;;9.53;;
7503;SDS011;3793;48.136;11.536;2022-12-07T03:51:42;12.17;;;9.30;;
7503;SDS011;3793;48.136;11.536;2022-12-07T03:54:13;12.37;;;9.60;;
7503;SDS011;3793;48.136;11.536;2022-12-07T03:56:42;10.10;;;8.63;;
7503;SDS011;3793;48.136;11.536;2022-12-07T03:59:09;11.07;;;8.70;;
7503;SDS011;3793;48.136;11.536;2022-12-07T04:01:36;10.87;;;8.63;;
7503;SDS011;3793;48.136;11.536;2022-12-07T04:04:03;11.70;;;8.47;;
7503;SDS011;3793;48.136;11.536;2022-12-07T04:06:29;10.77;;;8.57;;
7503;SDS011;3793;48.136;11.536;2022-12-07T04:08:57;12.77;;;8.00;;
7503;SDS011;3793;48.136;11.536;2022-12-07T04:11:24;9.60;;;8.23;;
7503;SDS011;3793;48.136;11.536;2022-12-07T04:13:50;11.03;;;8.70;;
7503;SDS011;3793;48.136;11.536;2022-12-07T04:16:34;11.77;;;9.00;;
7503;SDS011;3793;48.136;11.536;2022-12-07T04:19:01;10.67;;;8.40;;
7503;SDS011;3793;48.136;11.536;2022-12-07T04:21:27;13.10;;;8.73;;
7503;SDS011;3793;48.136;11.536;2022-12-07T04:23:54;10.80;;;8.77;;
7503;SDS011;3793;48.136;11.536;2022-12-07T04:26:22;12.23;;;9.50;;
7503;SDS011;3793;48.136;11.536;2022-12-07T04:28:48;11.47;;;8.80;;
7503;SDS011;3793;48.136;11.536;2022-12-07T04:31:15;10.57;;;8.93;;
7503;SDS011;3793;48.136;11.536;2022-12-07T04:33:41;11.50;;;8.57;;
7503;SDS011;3793;48.136;11.536;2022-12-07T04:36:08;12.67;;;9.63;;
7503;SDS011;3793;48.136;11.536;2022-12-07T04:38:35;13.00;;;9.30;;
7503;SDS011;3793;48.136;11.536;2022-12-07T04:41:04;12.93;;;9.93;;
7503;SDS011;3793;48.136;11.536;2022-12-07T04:46:00;12.07;;;9.50;;
7503;SDS011;3793;48.136;11.536;2022-12-07T04:48:26;12.47;;;9.63;;
7503;SDS011;3793;48.136;11.536;2022-12-07T04:50:53;12.03;;;9.43;;
7503;SDS011;3793;48.136;11.536;2022-12-07T04:53:19;12.33;;;9.30;;
7503;SDS011;3793;48.136;11.536;2022-12-07T04:55:46;13.33;;;9.63;;
7503;SDS011;3793;48.136;11.536;2022-12-07T04:58:13;13.93;;;10.43;;
7503;SDS011;3793;48.136;11.536;2022-12-07T05:00:39;12.50;;;9.20;;
7503;SDS011;3793;48.136;11.536;2022-12-07T05:03:07;12.83;;;9.50;;
7503;SDS011;3793;48.136;11.536;2022-12-07T05:05:34;12.77;;;9.97;;
7503;SDS011;3793;48.136;11.536;2022-12-07T05:08:00;13.90;;;9.97;;
7503;SDS011;3793;48.136;11.536;2022-12-07T05:10:27;12.27;;;9.67;;
7503;SDS011;3793;48.136;11.536;2022-12-07T05:12:53;11.27;;;8.83;;
7503;SDS011;3793;48.136;11.536;2022-12-07T05:15:20;14.17;;;9.20;;
7503;SDS011;3793;48.136;11.536;2022-12-07T05:17:46;11.50;;;8.63;;
7503;SDS011;3793;48.136;11.536;2022-12-07T05:20:14;13.07;;;10.00;;
7503;SDS011;3793;48.136;11.536;2022-12-07T05:22:41;11.50;;;9.10;;
7503;SDS011;3793;48.136;11.536;2022-12-07T05:25:09;12.13;;;9.87;;
7503;SDS011;3793;48.136;11.536;2022-12-07T05:27:35;13.10;;;9.30;;
7503;SDS011;3793;48.136;11.536;2022-12-07T05:30:02;11.97;;;9.63;;
7503;SDS011;3793;48.136;11.536;2022-12-07T05:32:29;13.20;;;9.97;;
7503;SDS011;3793;48.136;11.536;2022-12-07T05:34:55;11.37;;;9.30;;
7503;SDS011;3793;48.136;11.536;2022-12-07T05:37:23;12.93;;;9.27;;
7503;SDS011;3793;48.136;11.536;2022-12-07T05:39:50;12.93;;;9.50;;
7503;SDS011;3793;48.136;11.536;2022-12-07T05:42:16;12.70;;;9.57;;
7503;SDS011;3793;48.136;11.536;2022-12-07T05:44:43;13.40;;;9.77;;
7503;SDS011;3793;48.136;11.536;2022-12-07T05:47:10;13.40;;;10.30;;
7503;SDS011;3793;48.136;11.536;2022-12-07T05:49:37;12.60;;;10.47;;
7503;SDS011;3793;48.136;11.536;2022-12-07T05:52:04;11.83;;;9.40;;
7503;SDS011;3793;48.136;11.536;2022-12-07T05:54:32;11.73;;;9.20;;
7503;SDS011;3793;48.136;11.536;2022-12-07T05:56:58;14.27;;;10.23;;
7503;SDS011;3793;48.136;11.536;2022-12-07T05:59:25;13.83;;;10.83;;
7503;SDS011;3793;48.136;11.536;2022-12-07T06:01:53;14.07;;;10.30;;
7503;SDS011;3793;48.136;11.536;2022-12-07T06:04:20;12.00;;;9.97;;
7503;SDS011;3793;48.136;11.536;2022-12-07T06:06:47;12.23;;;9.90;;
7503;SDS011;3793;48.136;11.536;2022-12-07T06:09:13;12.80;;;10.17;;
7503;SDS011;3793;48.136;11.536;2022-12-07T06:11:42;13.47;;;10.60;;
7503;SDS011;3793;48.136;11.536;2022-12-07T06:14:26;13.57;;;10.30;;
7503;SDS011;3793;48.136;11.536;2022-12-07T06:16:53;12.97;;;10.23;;
7503;SDS011;3793;48.136;11.536;2022-12-07T06:19:22;14.43;;;10.97;;
7503;SDS011;3793;48.136;11.536;2022-12-07T06:21:48;14.60;;;10.17;;
7503;SDS011;3793;48.136;11.536;2022-12-07T06:24:15;12.57;;;10.40;;
7503;SDS011;3793;48.136;11.536;2022-12-07T06:26:44;11.77;;;9.13;;
7503;SDS011;3793;48.136;11.536;2022-12-07T06:29:11;11.50;;;9.33;;
7503;SDS011;3793;48.136;11.536;2022-12-07T06:31:37;12.17;;;9.50;;
7503;SDS011;3793;48.136;11.536;2022-12-07T06:34:05;14.27;;;11.37;;
7503;SDS011;3793;48.136;11.536;2022-12-07T06:36:31;16.40;;;10.83;;
7503;SDS011;3793;48.136;11.536;2022-12-07T06:38:58;14.30;;;10.07;;
7503;SDS011;3793;48.136;11.536;2022-12-07T06:41:25;15.23;;;10.27;;
7503;SDS011;3793;48.136;11.536;2022-12-07T06:43:53;13.93;;;10.50;;
7503;SDS011;3793;48.136;11.536;2022-12-07T06:46:20;15.00;;;10.73;;
7503;SDS011;3793;48.136;11.536;2022-12-07T06:48:46;13.30;;;10.67;;
7503;SDS011;3793;48.136;11.536;2022-12-07T06:51:13;14.67;;;10.97;;
7503;SDS011;3793;48.136;11.536;2022-12-07T06:53:40;14.80;;;10.40;;
7503;SDS011;3793;48.136;11.536;2022-12-07T06:56:06;15.27;;;11.50;;
7503;SDS011;3793;48.136;11.536;2022-12-07T06:58:33;12.57;;;9.47;;
7503;SDS011;3793;48.136;11.536;2022-12-07T07:01:01;13.00;;;10.57;;
7503;SDS011;3793;48.136;11.536;2022-12-07T07:03:28;12.43;;;10.00;;
7503;SDS011;3793;48.136;11.536;2022-12-07T07:05:55;14.57;;;11.03;;
7503;SDS011;3793;48.136;11.536;2022-12-07T07:08:21;12.63;;;10.47;;
7503;SDS011;3793;48.136;11.536;2022-12-07T07:10:48;13.93;;;10.70;;
7503;SDS011;3793;48.136;11.536;2022-12-07T07:13:14;12.93;;;9.77;;
7503;SDS011;3793;48.136;11.536;2022-12-07T07:15:41;13.67;;;11.27;;
7503;SDS011;3793;48.136;11.536;2022-12-07T07:18:09;14.57;;;11.83;;
7503;SDS011;3793;48.136;11.536;2022-12-07T07:20:36;14.03;;;11.20;;
7503;SDS011;3793;48.136;11.536;2022-12-07T07:23:02;15.73;;;11.90;;
7503;SDS011;3793;48.136;11.536;2022-12-07T07:25:29;13.30;;;10.67;;
7503;SDS011;3793;48.136;11.536;2022-12-07T07:27:55;14.20;;;11.27;;
7503;SDS011;3793;48.136;11.536;2022-12-07T07:30:22;14.23;;;11.30;;
7503;SDS011;3793;48.136;11.536;2022-12-07T07:32:48;18.03;;;11.60;;
7503;SDS011;3793;48.136;11.536;2022-12-07T07:35:16;16.23;;;11.73;;
7503;SDS011;3793;48.136;11.536;2022-12-07T07:37:43;16.47;;;11.43;;
7503;SDS011;3793;48.136;11.536;2022-12-07T07:40:10;15.20;;;11.00;;
7503;SDS011;3793;48.136;11.536;2022-12-07T07:42:37;15.37;;;10.37;;
7503;SDS011;3793;48.136;11.536;2022-12-07T07:45:03;14.57;;;10.57;;
7503;SDS011;3793;48.136;11.536;2022-12-07T07:47:30;16.13;;;11.33;;
7503;SDS011;3793;48.136;11.536;2022-12-07T07:49:57;17.70;;;11.10;;
7503;SDS011;3793;48.136;11.536;2022-12-07T07:52:25;14.20;;;10.77;;
7503;SDS011;3793;48.136;11.536;2022-12-07T07:54:51;17.00;;;11.60;;
7503;SDS011;3793;48.136;11.536;2022-12-07T07:57:18;14.30;;;10.57;;
7503;SDS011;3793;48.136;11.536;2022-12-07T07:59:45;13.33;;;10.37;;
7503;SDS011;3793;48.136;11.536;2022-12-07T08:02:13;17.57;;;11.93;;
7503;SDS011;3793;48.136;11.536;2022-12-07T08:04:40;15.93;;;11.10;;
7503;SDS011;3793;48.136;11.536;2022-12-07T08:07:07;16.70;;;11.60;;
7503;SDS011;3793;48.136;11.536;2022-12-07T08:09:35;14.80;;;11.20;;
7503;SDS011;3793;48.136;11.536;2022-12-07T08:12:01;15.93;;;11.63;;
7503;SDS011;3793;48.136;11.536;2022-12-07T08:14:28;14.20;;;11.13;;
7503;SDS011;3793;48.136;11.536;2022-12-07T08:16:55;15.93;;;11.37;;
7503;SDS011;3793;48.136;11.536;2022-12-07T08:19:21;16.23;;;12.40;;
7503;SDS011;3793;48.136;11.536;2022-12-07T08:21:48;15.93;;;11.50;;
7503;SDS011;3793;48.136;11.536;2022-12-07T08:24:14;16.60;;;11.50;;
7503;SDS011;3793;48.136;11.536;2022-12-07T08:26:42;14.77;;;11.60;;
7503;SDS011;3793;48.136;11.536;2022-12-07T08:29:09;16.00;;;11.83;;
7503;SDS011;3793;48.136;11.536;2022-12-07T08:31:36;16.67;;;11.80;;
7503;SDS011;3793;48.136;11.536;2022-12-07T08:34:02;14.47;;;11.27;;
7503;SDS011;3793;48.136;11.536;2022-12-07T08:36:29;14.77;;;11.50;;
7503;SDS011;3793;48.136;11.536;2022-12-07T08:38:55;16.17;;;11.80;;
7503;SDS011;3793;48.136;11.536;2022-12-07T08:41:22;17.53;;;12.23;;
7503;SDS011;3793;48.136;11.536;2022-12-07T08:43:50;19.20;;;13.67;;
7503;SDS011;3793;48.136;11.536;2022-12-07T08:46:17;15.83;;;12.23;;
7503;SDS011;3793;48.136;11.536;2022-12-07T08:48:46;15.70;;;12.80;;
7503;SDS011;3793;48.136;11.536;2022-12-07T08:51:15;17.97;;;12.60;;
7503;SDS011;3793;48.136;11.536;2022-12-07T08:53:42;15.23;;;11.20;;
7503;SDS011;3793;48.136;11.536;2022-12-07T08:56:09;13.50;;;11.03;;
7503;SDS011;3793;48.136;11.536;2022-12-07T08:58:35;16.00;;;12.07;;
7503;SDS011;3793;48.136;11.536;2022-12-07T09:01:04;12.93;;;10.87;;
7503;SDS011;3793;48.136;11.536;2022-12-07T09:03:31;11.87;;;10.23;;
7503;SDS011;3793;48.136;11.536;2022-12-07T09:05:58;14.77;;;11.50;;
7503;SDS011;3793;48.136;11.536;2022-12-07T09:08:26;13.80;;;10.97;;
7503;SDS011;3793;48.136;11.536;2022-12-07T09:10:53;14.97;;;12.27;;
7503;SDS011;3793;48.136;11.536;2022-12-07T09:13:19;15.77;;;11.80;;
7503;SDS011;3793;48.136;11.536;2022-12-07T09:15:46;14.67;;;11.87;;
7503;SDS011;3793;48.136;11.536;2022-12-07T09:18:14;15.33;;;11.67;;
7503;SDS011;3793;48.136;11.536;2022-12-07T09:20:40;13.53;;;10.33;;
7503;SDS011;3793;48.136;11.536;2022-12-07T09:23:07;13.23;;;10.47;;
7503;SDS011;3793;48.136;11.536;2022-12-07T09:25:33;13.23;;;10.73;;
7503;SDS011;3793;48.136;11.536;2022-12-07T09:28:00;13.67;;;10.00;;
7503;SDS011;3793;48.136;11.536;2022-12-07T09:30:27;16.60;;;10.43;;
7503;SDS011;3793;48.136;11.536;2022-12-07T09:32:54;13.47;;;10.43;;
7503;SDS011;3793;48.136;11.536;2022-12-07T09:35:22;13.90;;;10.53;;
7503;SDS011;3793;48.136;11.536;2022-12-07T09:37:49;13.23;;;9.83;;
7503;SDS011;3793;48.136;11.536;2022-12-07T09:40:16;14.37;;;10.40;;
7503;SDS011;3793;48.136;11.536;2022-12-07T09:42:44;13.97;;;10.53;;
7503;SDS011;3793;48.136;11.536;2022-12-07T09:45:12;12.97;;;9.83;;
7503;SDS011;3793;48.136;11.536;2022-12-07T09:47:39;13.53;;;10.60;;
7503;SDS011;3793;48.136;11.536;2022-12-07T09:50:10;13.57;;;10.00;;
7503;SDS011;3793;48.136;11.536;2022-12-07T09:52:39;12.97;;;10.33;;
7503;SDS011;3793;48.136;11.536;2022-12-07T09:55:09;16.77;;;11.10;;
7503;SDS011;3793;48.136;11.536;2022-12-07T09:57:36;13.97;;;10.00;;
7503;SDS011;3793;48.136;11.536;2022-12-07T10:00:06;13.00;;;10.33;;
7503;SDS011;3793;48.136;11.536;2022-12-07T10:02:34;12.57;;;9.87;;
7503;SDS011;3793;48.136;11.536;2022-12-07T10:05:02;12.57;;;10.20;;
7503;SDS011;3793;48.136;11.536;2022-12-07T10:07:29;14.53;;;11.20;;
7503;SDS011;3793;48.136;11.536;2022-12-07T10:09:58;13.47;;;10.90;;
7503;SDS011;3793;48.136;11.536;2022-12-07T10:12:24;12.87;;;9.40;;
7503;SDS011;3793;48.136;11.536;2022-12-07T10:14:55;12.17;;;9.80;;
7503;SDS011;3793;48.136;11.536;2022-12-07T10:17:34;19.73;;;10.33;;
7503;SDS011;3793;48.136;11.536;2022-12-07T10:20:25;13.37;;;9.70;;
7503;SDS011;3793;48.136;11.536;2022-12-07T10:22:55;12.13;;;9.10;;
7503;SDS011;3793;48.136;11.536;2022-12-07T10:25:31;10.93;;;8.97;;
7503;SDS011;3793;48.136;11.536;2022-12-07T10:28:03;11.67;;;8.73;;
7503;SDS011;3793;48.136;11.536;2022-12-07T10:30:45;12.97;;;8.33;;
7503;SDS011;3793;48.136;11.536;2022-12-07T10:33:21;10.67;;;8.57;;
7503;SDS011;3793;48.136;11.536;2022-12-07T10:35:53;10.67;;;7.83;;
7503;SDS011;3793;48.136;11.536;2022-12-07T10:38:19;10.93;;;8.40;;
7503;SDS011;3793;48.136;11.536;2022-12-07T10:40:48;11.73;;;8.93;;
7503;SDS011;3793;48.136;11.536;2022-12-07T10:43:28;13.00;;;9.17;;
7503;SDS011;3793;48.136;11.536;2022-12-07T10:46:01;11.03;;;7.93;;
7503;SDS011;3793;48.136;11.536;2022-12-07T10:48:32;10.50;;;8.83;;
7503;SDS011;3793;48.136;11.536;2022-12-07T10:51:02;11.27;;;8.03;;
7503;SDS011;3793;48.136;11.536;2022-12-07T10:53:36;8.07;;;7.10;;
7503;SDS011;3793;48.136;11.536;2022-12-07T10:58:55;9.60;;;7.33;;
7503;SDS011;3793;48.136;11.536;2022-12-07T11:01:24;10.30;;;7.73;;
7503;SDS011;3793;48.136;11.536;2022-12-07T11:04:07;10.13;;;7.57;;
7503;SDS011;3793;48.136;11.536;2022-12-07T11:06:38;8.70;;;6.80;;
7503;SDS011;3793;48.136;11.536;2022-12-07T11:11:48;8.77;;;5.93;;
7503;SDS011;3793;48.136;11.536;2022-12-07T11:14:20;9.67;;;6.37;;
7503;SDS011;3793;48.136;11.536;2022-12-07T11:16:51;7.87;;;6.30;;
7503;SDS011;3793;48.136;11.536;2022-12-07T11:19:25;7.60;;;6.20;;
7503;SDS011;3793;48.136;11.536;2022-12-07T11:21:56;8.40;;;6.80;;
7503;SDS011;3793;48.136;11.536;2022-12-07T11:24:24;9.47;;;6.50;;
7503;SDS011;3793;48.136;11.536;2022-12-07T11:27:07;10.03;;;6.93;;
7503;SDS011;3793;48.136;11.536;2022-12-07T11:29:47;10.73;;;7.20;;
7503;SDS011;3793;48.136;11.536;2022-12-07T11:32:17;12.10;;;6.73;;
7503;SDS011;3793;48.136;11.536;2022-12-07T11:34:50;8.37;;;6.30;;
7503;SDS011;3793;48.136;11.536;2022-12-07T11:37:24;8.80;;;6.23;;
7503;SDS011;3793;48.136;11.536;2022-12-07T11:39:52;7.80;;;6.40;;
7503;SDS011;3793;48.136;11.536;2022-12-07T11:42:21;10.20;;;7.13;;
7503;SDS011;3793;48.136;11.536;2022-12-07T11:44:52;8.23;;;6.47;;
7503;SDS011;3793;48.136;11.536;2022-12-07T11:47:21;10.07;;;6.47;;
7503;SDS011;3793;48.136;11.536;2022-12-07T11:49:51;7.50;;;5.97;;
7503;SDS011;3793;48.136;11.536;2022-12-07T11:52:21;8.57;;;6.50;;
7503;SDS011;3793;48.136;11.536;2022-12-07T11:54:50;8.77;;;6.60;;
7503;SDS011;3793;48.136;11.536;2022-12-07T11:57:19;8.17;;;6.57;;
7503;SDS011;3793;48.136;11.536;2022-12-07T11:59:47;8.53;;;7.17;;
7503;SDS011;3793;48.136;11.536;2022-12-07T12:02:18;9.33;;;7.23;;
7503;SDS011;3793;48.136;11.536;2022-12-07T12:04:49;9.73;;;6.80;;
7503;SDS011;3793;48.136;11.536;2022-12-07T12:07:21;9.70;;;7.40;;
7503;SDS011;3793;48.136;11.536;2022-12-07T12:09:49;8.17;;;6.60;;
7503;SDS011;3793;48.136;11.536;2022-12-07T12:12:21;9.53;;;7.40;;
7503;SDS011;3793;48.136;11.536;2022-12-07T12:14:54;10.77;;;7.77;;
7503;SDS011;3793;48.136;11.536;2022-12-07T12:17:47;10.63;;;7.37;;
7503;SDS011;3793;48.136;11.536;2022-12-07T12:20:19;10.00;;;7.20;;
7503;SDS011;3793;48.136;11.536;2022-12-07T12:22:48;10.10;;;6.40;;
7503;SDS011;3793;48.136;11.536;2022-12-07T12:25:17;8.90;;;6.53;;
7503;SDS011;3793;48.136;11.536;2022-12-07T12:27:45;8.73;;;6.87;;
7503;SDS011;3793;48.136;11.536;2022-12-07T12:30:23;7.47;;;6.40;;
7503;SDS011;3793;48.136;11.536;2022-12-07T12:32:52;8.33;;;6.63;;
7503;SDS011;3793;48.136;11.536;2022-12-07T12:35:26;6.90;;;5.70;;
7503;SDS011;3793;48.136;11.536;2022-12-07T12:37:54;8.10;;;5.37;;
7503;SDS011;3793;48.136;11.536;2022-12-07T12:40:40;8.27;;;6.10;;
7503;SDS011;3793;48.136;11.536;2022-12-07T12:45:48;8.43;;;6.60;;
7503;SDS011;3793;48.136;11.536;2022-12-07T12:48:29;10.07;;;7.40;;
7503;SDS011;3793;48.136;11.536;2022-12-07T12:53:37;8.53;;;6.40;;
7503;SDS011;3793;48.136;11.536;2022-12-07T12:59:16;8.87;;;6.27;;
7503;SDS011;3793;48.136;11.536;2022-12-07T13:01:45;11.40;;;6.43;;
7503;SDS011;3793;48.136;11.536;2022-12-07T13:04:23;12.43;;;7.00;;
7503;SDS011;3793;48.136;11.536;2022-12-07T13:06:50;10.70;;;7.47;;
7503;SDS011;3793;48.136;11.536;2022-12-07T13:09:18;9.63;;;7.00;;
7503;SDS011;3793;48.136;11.536;2022-12-07T13:11:46;7.20;;;6.00;;
7503;SDS011;3793;48.136;11.536;2022-12-07T13:16:58;9.87;;;6.53;;
7503;SDS011;3793;48.136;11.536;2022-12-07T13:25:20;9.73;;;6.90;;
7503;SDS011;3793;48.136;11.536;2022-12-07T13:27:50;7.70;;;6.00;;
7503;SDS011;3793;48.136;11.536;2022-12-07T13:30:18;8.13;;;6.07;;
7503;SDS011;3793;48.136;11.536;2022-12-07T13:32:49;8.17;;;5.97;;
7503;SDS011;3793;48.136;11.536;2022-12-07T13:35:33;7.80;;;6.00;;
7503;SDS011;3793;48.136;11.536;2022-12-07T13:38:01;8.97;;;6.90;;
7503;SDS011;3793;48.136;11.536;2022-12-07T13:40:30;10.73;;;6.97;;
7503;SDS011;3793;48.136;11.536;2022-12-07T13:42:57;8.40;;;6.60;;
7503;SDS011;3793;48.136;11.536;2022-12-07T13:45:25;9.33;;;7.07;;
7503;SDS011;3793;48.136;11.536;2022-12-07T13:48:13;9.33;;;7.10;;
7503;SDS011;3793;48.136;11.536;2022-12-07T13:50:41;9.20;;;6.83;;
7503;SDS011;3793;48.136;11.536;2022-12-07T13:53:11;9.90;;;6.60;;
7503;SDS011;3793;48.136;11.536;2022-12-07T13:55:40;7.73;;;5.90;;
7503;SDS011;3793;48.136;11.536;2022-12-07T13:58:10;11.37;;;8.03;;
7503;SDS011;3793;48.136;11.536;2022-12-07T14:00:37;11.13;;;7.33;;
7503;SDS011;3793;48.136;11.536;2022-12-07T14:03:04;9.87;;;7.10;;
7503;SDS011;3793;48.136;11.536;2022-12-07T14:05:44;10.10;;;8.00;;
7503;SDS011;3793;48.136;11.536;2022-12-07T14:08:21;8.67;;;7.30;;
7503;SDS011;3793;48.136;11.536;2022-12-07T14:10:55;11.23;;;7.50;;
7503;SDS011;3793;48.136;11.536;2022-12-07T14:13:25;13.13;;;7.87;;
7503;SDS011;3793;48.136;11.536;2022-12-07T14:15:52;9.33;;;7.30;;
7503;SDS011;3793;48.136;11.536;2022-12-07T14:18:24;9.30;;;6.93;;
7503;SDS011;3793;48.136;11.536;2022-12-07T14:20:52;8.53;;;6.47;;
7503;SDS011;3793;48.136;11.536;2022-12-07T14:23:28;7.83;;;5.97;;
7503;SDS011;3793;48.136;11.536;2022-12-07T14:26:04;7.57;;;5.53;;
7503;SDS011;3793;48.136;11.536;2022-12-07T14:28:31;9.43;;;5.67;;
7503;SDS011;3793;48.136;11.536;2022-12-07T14:30:58;8.47;;;5.87;;
7503;SDS011;3793;48.136;11.536;2022-12-07T14:33:26;9.37;;;7.07;;
7503;SDS011;3793;48.136;11.536;2022-12-07T14:35:52;8.57;;;5.90;;
7503;SDS011;3793;48.136;11.536;2022-12-07T14:38:20;7.77;;;5.43;;
7503;SDS011;3793;48.136;11.536;2022-12-07T14:40:47;9.70;;;5.57;;
7503;SDS011;3793;48.136;11.536;2022-12-07T14:43:16;9.37;;;5.60;;
7503;SDS011;3793;48.136;11.536;2022-12-07T14:45:43;7.20;;;4.83;;
7503;SDS011;3793;48.136;11.536;2022-12-07T14:48:10;7.70;;;5.07;;
7503;SDS011;3793;48.136;11.536;2022-12-07T14:50:38;6.57;;;5.20;;
7503;SDS011;3793;48.136;11.536;2022-12-07T14:53:06;7.57;;;5.17;;
7503;SDS011;3793;48.136;11.536;2022-12-07T14:55:35;7.10;;;5.17;;
7503;SDS011;3793;48.136;11.536;2022-12-07T14:58:02;8.50;;;5.00;;
7503;SDS011;3793;48.136;11.536;2022-12-07T15:00:30;7.03;;;5.17;;
7503;SDS011;3793;48.136;11.536;2022-12-07T15:02:58;9.57;;;5.10;;
7503;SDS011;3793;48.136;11.536;2022-12-07T15:05:24;8.80;;;5.63;;
7503;SDS011;3793;48.136;11.536;2022-12-07T15:07:51;7.90;;;5.37;;
7503;SDS011;3793;48.136;11.536;2022-12-07T15:10:19;12.00;;;5.87;;
7503;SDS011;3793;48.136;11.536;2022-12-07T15:12:46;8.57;;;5.77;;
7503;SDS011;3793;48.136;11.536;2022-12-07T15:15:12;9.13;;;6.47;;
7503;SDS011;3793;48.136;11.536;2022-12-07T15:17:40;9.40;;;6.30;;
7503;SDS011;3793;48.136;11.536;2022-12-07T15:20:08;9.07;;;6.00;;
7503;SDS011;3793;48.136;11.536;2022-12-07T15:22:37;9.83;;;6.30;;
7503;SDS011;3793;48.136;11.536;2022-12-07T15:25:04;11.83;;;6.40;;
7503;SDS011;3793;48.136;11.536;2022-12-07T15:27:31;10.67;;;5.80;;
7503;SDS011;3793;48.136;11.536;2022-12-07T15:29:57;8.77;;;5.37;;